Meckling, South Dakota
Current Conditions -  °F | °C
As of 9:55 AM on Monday 24 Nov 2014 (Local Time) from KLCG Reporting Station
Overcast Overcast  
Wind Chill: 11°   Ceiling: 2000
Heat Index: 25°   Visibility: 10mi
Dew Point: 18°   Wind: 18mph
Humidity: 76%   Direction: 320°NW
Pressure: 29.72"   Gusts: 26mph
Location:  42.84°N, 97.07°W
Report Text: KLCG 241555Z AUTO 32016G23KT 10SM OVC020 M04/M08 A2972 RMK AO2 T10401077
Loading
Personal Weather Stations






























Interactive Weather Map New forecast layout! Learn more

10-Day Weather Forecast

Advertisements
Track Severe Weather on mobile